weather.gov     
National Weather Service

Terminal Aerodrome Forecast
NWS Homepage
This page is being discontinued on March 12, 2014.
The same data is available at this site. Please update your bookmarks.
Thank you, and we apologize for the inconvenience.
Please send an email to SR-SRH.Webmaster@noaa.gov with any concerns.


Current Version
Previous Version:    01  02  03  04  05  06  07  08  09  10  11  12  13  14  15  16  17  18  19  20  21  22  23  24  25  26  27  28  29  30  
   31  32  33  34  35  36  37  38  39  40  41  
[Printable]
851
FTUS45 KPUB 230217 AAB
TAFCOS
TAF AMD
KCOS 230217Z 2302/2324 01008KT 4SM -SHSN FEW010 BKN025
     FM230300 35012KT 6SM -SHSN BR BKN030
     FM230500 33015KT P6SM VCSH SCT020 BKN070
     FM231100 34025G35KT P6SM VCSH SCT020 BKN070
     FM231700 35030G40KT P6SM SCT025 BKN070=


851
FTUS45 KPUB 230217 AAB
TAFCOS
TAF AMD
KCOS 230217Z 2302/2324 01008KT 4SM -SHSN FEW010 BKN025
     FM230300 35012KT 6SM -SHSN BR BKN030
     FM230500 33015KT P6SM VCSH SCT020 BKN070
     FM231100 34025G35KT P6SM VCSH SCT020 BKN070
     FM231700 35030G40KT P6SM SCT025 BKN070=




U.S. Dept. of Commerce
NOAA National Weather Service
1325 East West Highway
Silver Spring, MD 20910
E-mail: w-nws.webmaster@noaa.gov
Page last modified: May 16, 2007
NATIONAL WEATHER SERVICE: for Safety, for Work, for Fun - FOR LIFE